createdAt,value
2022-08-11T00:05:02.830Z,45.70
2022-08-11T00:10:05.825Z,45.60
2022-08-11T00:15:13.622Z,45.60
2022-08-11T00:20:17.640Z,45.60
2022-08-11T00:25:21.744Z,45.90
2022-08-11T00:30:26.907Z,45.60
2022-08-11T00:35:53.663Z,46.30
2022-08-11T00:41:05.576Z,47.00
2022-08-11T00:46:17.342Z,47.80
2022-08-11T00:51:56.646Z,48.30
2022-08-11T00:57:37.110Z,48.50
2022-08-11T01:02:59.464Z,48.60
2022-08-11T01:08:50.716Z,49.20
2022-08-11T01:14:34.100Z,49.20
2022-08-11T01:20:46.967Z,49.10
2022-08-11T01:26:11.376Z,50.00
2022-08-11T01:31:51.955Z,50.20
2022-08-11T01:37:40.181Z,50.80
2022-08-11T01:43:43.268Z,51.50
2022-08-11T01:49:58.614Z,51.90
2022-08-11T01:54:34.286Z,51.80
2022-08-11T01:59:49.253Z,51.10
2022-08-11T02:05:01.060Z,52.20
2022-08-11T02:10:35.270Z,52.70
2022-08-11T02:15:46.742Z,52.30
2022-08-11T02:21:14.023Z,52.50
2022-08-11T02:26:24.219Z,52.30
2022-08-11T02:32:14.548Z,52.90
2022-08-11T02:37:25.706Z,53.00
2022-08-11T02:42:35.985Z,53.60
2022-08-11T02:48:10.613Z,53.60
2022-08-11T02:53:18.455Z,54.30
2022-08-11T02:58:36.008Z,54.10
2022-08-11T03:03:51.396Z,55.10
2022-08-11T03:09:00.694Z,55.40
2022-08-11T03:14:33.547Z,55.40
2022-08-11T03:19:47.743Z,54.40
2022-08-11T03:25:01.326Z,55.10
2022-08-11T03:30:08.973Z,55.80
2022-08-11T03:35:17.790Z,54.80
2022-08-11T03:40:58.605Z,56.00
2022-08-11T03:46:09.051Z,56.50
2022-08-11T03:51:21.216Z,57.10
2022-08-11T03:57:29.997Z,57.40
2022-08-11T04:02:58.213Z,57.30
2022-08-11T04:08:17.416Z,58.20
2022-08-11T04:14:24.567Z,58.00
2022-08-11T04:20:03.787Z,57.70
2022-08-11T04:25:31.080Z,57.60
2022-08-11T04:30:55.669Z,57.90
2022-08-11T04:36:11.317Z,58.10
2022-08-11T04:42:04.333Z,58.00
2022-08-11T04:48:01.392Z,58.10
2022-08-11T04:53:47.614Z,57.80
2022-08-11T04:59:34.218Z,57.60
2022-08-11T05:05:10.041Z,57.30
2022-08-11T05:10:21.363Z,56.70
2022-08-11T05:15:56.308Z,56.50
2022-08-11T05:21:20.913Z,56.00
2022-08-11T05:26:46.909Z,55.00
2022-08-11T05:32:17.485Z,54.30
2022-08-11T05:37:27.127Z,53.30
2022-08-11T05:42:48.319Z,53.40
2022-08-11T05:48:10.197Z,50.40
2022-08-11T05:53:45.956Z,49.40
2022-08-11T05:58:52.274Z,47.40
2022-08-11T06:04:17.321Z,46.30
2022-08-11T06:09:25.532Z,45.00
2022-08-11T06:14:30.162Z,44.70
2022-08-11T06:19:39.586Z,46.00
2022-08-11T06:24:52.072Z,43.80
2022-08-11T06:29:55.942Z,44.10
2022-08-11T06:35:11.430Z,43.40
2022-08-11T06:40:27.474Z,43.20
2022-08-11T06:45:40.153Z,43.00
2022-08-11T06:51:08.154Z,43.40
2022-08-11T06:56:28.803Z,42.10
2022-08-11T07:01:49.481Z,42.40
2022-08-11T07:07:20.290Z,42.20
2022-08-11T07:12:59.215Z,42.70
2022-08-11T07:18:23.409Z,42.70
2022-08-11T07:23:47.633Z,42.50
2022-08-11T07:28:58.306Z,42.70
2022-08-11T07:34:17.367Z,42.70
2022-08-11T07:39:24.742Z,42.70
2022-08-11T07:44:34.755Z,42.70
2022-08-11T07:49:57.169Z,42.40
2022-08-11T07:55:03.005Z,42.40
2022-08-11T08:00:24.022Z,42.40
2022-08-11T08:05:50.227Z,42.20
2022-08-11T08:11:12.921Z,41.70
2022-08-11T08:16:32.695Z,41.50
2022-08-11T08:21:39.645Z,41.80
2022-08-11T08:27:00.080Z,41.70
2022-08-11T08:32:04.065Z,41.60
2022-08-11T08:37:45.361Z,41.30
2022-08-11T08:42:34.000Z,41.20
2022-08-11T08:47:42.171Z,41.00
2022-08-11T08:52:54.825Z,40.80
2022-08-11T08:58:00.854Z,39.90
2022-08-11T09:03:22.818Z,40.00
2022-08-11T09:11:27.806Z,39.10
2022-08-11T09:16:30.165Z,38.80
2022-08-11T09:21:36.891Z,38.80
2022-08-11T09:27:02.985Z,38.10
2022-08-11T09:32:07.263Z,37.40
2022-08-11T09:37:55.453Z,35.80
2022-08-11T09:43:13.000Z,35.60
2022-08-11T09:48:15.318Z,33.70
2022-08-11T09:53:36.809Z,32.90
2022-08-11T09:58:45.892Z,31.00
2022-08-11T10:03:48.759Z,30.70
2022-08-11T10:08:54.189Z,30.20
2022-08-11T10:14:32.131Z,31.20
2022-08-11T10:19:38.354Z,30.90
2022-08-11T10:25:10.364Z,29.90
2022-08-11T10:30:35.144Z,29.20
2022-08-11T10:35:39.710Z,29.10
2022-08-11T10:40:46.419Z,28.60
2022-08-11T10:46:07.816Z,27.20
2022-08-11T10:51:49.995Z,27.40
2022-08-11T10:56:59.209Z,28.10
2022-08-11T11:02:03.175Z,27.40
2022-08-11T11:07:13.853Z,26.70
2022-08-11T11:12:42.501Z,26.10
2022-08-11T11:17:57.909Z,25.50
2022-08-11T11:23:07.529Z,25.20
2022-08-11T11:28:38.290Z,25.30
2022-08-11T11:34:12.726Z,26.10
2022-08-11T11:39:18.235Z,26.60
2022-08-11T11:44:22.842Z,25.50
2022-08-11T11:49:29.189Z,24.30
2022-08-11T11:54:33.998Z,25.20
2022-08-11T11:59:53.440Z,25.80
2022-08-11T12:04:57.574Z,26.10
2022-08-11T12:10:00.413Z,25.30
2022-08-11T12:15:03.288Z,25.90
2022-08-11T12:20:30.937Z,25.80
2022-08-11T12:26:04.434Z,25.90
2022-08-11T12:31:11.855Z,25.80
2022-08-11T12:36:16.663Z,26.10
2022-08-11T12:41:36.914Z,25.30
2022-08-11T12:46:44.697Z,25.90
2022-08-11T12:52:11.465Z,25.00
2022-08-11T12:57:37.966Z,23.60
2022-08-11T13:03:03.279Z,21.80
2022-08-11T13:08:07.711Z,21.00
2022-08-11T13:13:54.825Z,20.30
2022-08-11T13:18:38.774Z,20.30
2022-08-11T13:23:42.992Z,21.00
2022-08-11T13:29:07.174Z,19.80
2022-08-11T13:34:09.771Z,20.80
2022-08-11T13:39:14.560Z,21.80
2022-08-11T13:44:24.840Z,22.60
2022-08-11T13:49:28.782Z,22.20
2022-08-11T13:54:35.203Z,22.20
2022-08-11T13:59:52.531Z,22.40
2022-08-11T14:04:57.887Z,23.00
2022-08-11T14:10:01.903Z,23.10
2022-08-11T14:15:08.970Z,23.80
2022-08-11T14:20:39.358Z,24.30
2022-08-11T14:26:02.291Z,25.00
2022-08-11T14:31:08.541Z,24.80
2022-08-11T14:36:12.608Z,24.80
2022-08-11T14:41:34.396Z,24.70
2022-08-11T14:46:55.468Z,24.60
2022-08-11T14:51:59.743Z,23.70
2022-08-11T14:57:04.329Z,23.00
2022-08-11T15:02:24.953Z,23.30
2022-08-11T15:07:30.569Z,24.20
2022-08-11T15:12:36.242Z,24.90
2022-08-11T15:17:43.400Z,26.10
2022-08-11T15:23:03.502Z,27.00
2022-08-11T15:28:27.256Z,27.50
2022-08-11T15:33:49.017Z,28.20
2022-08-11T15:38:55.830Z,28.60
2022-08-11T15:44:17.284Z,28.90
2022-08-11T15:49:26.123Z,29.20
2022-08-11T15:54:56.013Z,30.20
2022-08-11T16:00:24.725Z,30.20
2022-08-11T16:05:46.746Z,29.90
2022-08-11T16:11:03.986Z,30.50
2022-08-11T16:16:18.877Z,30.40
2022-08-11T16:21:37.598Z,30.00
2022-08-11T16:27:07.523Z,30.30
2022-08-11T16:32:21.148Z,31.10
2022-08-11T16:37:43.425Z,30.10
2022-08-11T16:43:11.103Z,30.40
2022-08-11T16:48:36.105Z,30.50
2022-08-11T16:54:04.031Z,30.40
2022-08-11T16:59:18.009Z,30.20
2022-08-11T17:04:50.425Z,30.20
2022-08-11T17:10:39.233Z,30.70
2022-08-11T17:16:03.475Z,29.50
2022-08-11T17:21:18.654Z,29.70
2022-08-11T17:26:28.472Z,28.80
2022-08-11T17:31:49.081Z,30.00
2022-08-11T17:36:57.444Z,29.20
2022-08-11T17:42:22.295Z,29.40
2022-08-11T17:47:43.635Z,29.60
2022-08-11T17:53:05.924Z,29.30
2022-08-11T17:58:26.875Z,29.20
2022-08-11T18:03:40.184Z,29.10
2022-08-11T18:09:05.936Z,29.80
2022-08-11T18:14:31.931Z,30.00
2022-08-11T18:19:57.042Z,29.90
2022-08-11T18:25:25.296Z,30.90
2022-08-11T18:30:53.844Z,31.40
2022-08-11T18:36:26.082Z,31.60
2022-08-11T18:41:56.149Z,31.10
2022-08-11T18:47:18.375Z,33.10
2022-08-11T18:52:40.241Z,32.60
2022-08-11T18:58:11.675Z,32.20
2022-08-11T19:03:48.568Z,32.70
2022-08-11T19:09:16.885Z,32.80
2022-08-11T19:14:42.033Z,32.90
2022-08-11T19:20:04.318Z,33.10
2022-08-11T19:25:26.082Z,33.70
2022-08-11T19:30:47.459Z,32.60
2022-08-11T19:36:08.070Z,33.70
2022-08-11T19:41:57.356Z,35.20
2022-08-11T19:47:10.999Z,36.50
2022-08-11T19:52:31.184Z,37.20
2022-08-11T19:57:53.702Z,37.70
2022-08-11T20:03:14.889Z,38.00
2022-08-11T20:08:36.066Z,38.30
2022-08-11T20:13:58.597Z,38.70
2022-08-11T20:19:25.892Z,39.00
2022-08-11T20:25:01.230Z,39.60
2022-08-11T20:30:22.366Z,41.00
2022-08-11T20:35:43.731Z,40.40
2022-08-11T20:41:05.781Z,40.60
2022-08-11T20:46:26.175Z,40.90
2022-08-11T20:51:48.438Z,40.90
2022-08-11T20:57:15.288Z,41.10
2022-08-11T21:02:37.625Z,41.50
2022-08-11T21:08:05.016Z,41.40
2022-08-11T21:13:29.276Z,41.50
2022-08-11T21:18:51.257Z,41.80
2022-08-11T21:24:13.441Z,41.90
2022-08-11T21:29:37.281Z,42.20
2022-08-11T21:34:59.986Z,42.20
2022-08-11T21:40:23.980Z,42.20
2022-08-11T21:45:46.444Z,42.50
2022-08-11T21:51:05.970Z,42.30
2022-08-11T21:56:28.619Z,42.50
2022-08-11T22:01:49.103Z,42.40
2022-08-11T22:07:09.477Z,42.40
2022-08-11T22:12:35.459Z,42.70
2022-08-11T22:17:58.211Z,43.10
2022-08-11T22:23:19.553Z,43.30
2022-08-11T22:28:42.804Z,43.70
2022-08-11T22:34:03.428Z,44.70
2022-08-11T22:39:25.584Z,43.90
2022-08-11T22:44:46.913Z,44.20
2022-08-11T22:50:10.963Z,44.60
2022-08-11T22:55:31.851Z,45.00
2022-08-11T23:00:53.016Z,45.10
2022-08-11T23:06:13.096Z,45.30
2022-08-11T23:12:07.859Z,45.60
2022-08-11T23:17:15.680Z,45.50
2022-08-11T23:22:43.794Z,46.00
2022-08-11T23:28:09.494Z,47.10
2022-08-11T23:33:34.729Z,47.30
2022-08-11T23:38:55.331Z,47.40
2022-08-11T23:44:15.708Z,47.60
2022-08-11T23:49:37.216Z,47.80
2022-08-11T23:54:57.231Z,48.10
